This is the latest recevied weather packets stored in our database for station/object N0NB. If no packets are shown the sender has not sent any weather packets the latest 10 day(s).
| Time | Temp. | Humidity | Pressure | Rain* | Wind** | Luminosity | Snow |
|---|---|---|---|---|---|---|---|
| 1778113817 | 15° C | 31% | 1015.4 hPa | 0 mm | - | 62 W/m² | - |
| 1778113217 | 15.56° C | 31% | 1015.5 hPa | 0 mm | - | 99 W/m² | - |
| 1778112617 | 15.56° C | 31% | 1015.4 hPa | 0 mm | - | 122 W/m² | - |
| 1778112017 | 16.11° C | 29% | 1015.6 hPa | 0 mm | - | 169 W/m² | - |
| 1778111417 | 16.11° C | 31% | 1015.6 hPa | 0 mm | - | 248 W/m² | - |
| 1778110817 | 15.56° C | 32% | 1015.5 hPa | 0 mm | - | 281 W/m² | - |
| 1778110217 | 16.11° C | 30% | 1015.7 hPa | 0 mm | - | 194 W/m² | - |
| 1778109617 | 16.11° C | 32% | 1015.8 hPa | 0 mm | - | 355 W/m² | - |
| 1778109017 | 16.11° C | 31% | 1015.8 hPa | 0 mm | - | 397 W/m² | - |
| 1778108417 | 15° C | 35% | 1015.9 hPa | 0 mm | - | 272 W/m² | - |
| 1778107817 | 15.56° C | 30% | 1015.9 hPa | 0 mm | - | 102 W/m² | - |
| 1778107217 | 16.11° C | 30% | 1016 hPa | 0 mm | - | 506 W/m² | - |
| 1778106617 | 16.11° C | 30% | 1016 hPa | 0 mm | - | 233 W/m² | - |
| 1778106017 | 15.56° C | 33% | 1016 hPa | 0 mm | - | 418 W/m² | - |
| 1778105417 | 15° C | 32% | 1016.1 hPa | 0 mm | - | 433 W/m² | - |
| 1778104817 | 15.56° C | 29% | 1016.2 hPa | 0 mm | - | 353 W/m² | - |
| 1778104217 | 16.11° C | 33% | 1016.3 hPa | 0 mm | - | 653 W/m² | - |
| 1778103609 | 16.67° C | 31% | 1016.4 hPa | 0 mm | - | 690 W/m² | - |
| 1778103016 | 16.67° C | 32% | 1016.7 hPa | 0 mm | - | 746 W/m² | - |
| 1778102417 | 16.67° C | 33% | 1016.6 hPa | 0 mm | - | 791 W/m² | - |
| 1778101817 | 16.67° C | 30% | 1017 hPa | 0 mm | - | 816 W/m² | - |
| 1778101217 | 16.67° C | 29% | 1017 hPa | 0 mm | - | 851 W/m² | - |
| 1778100617 | 16.11° C | 30% | 1017.3 hPa | 0 mm | - | 916 W/m² | - |
| 1778100017 | 15.56° C | 31% | 1017.3 hPa | 0 mm | - | 958 W/m² | - |
| 1778099417 | 16.11° C | 31% | 1017.5 hPa | 0 mm | - | 915 W/m² | - |
* Rain latest hour (hover to see other rain measurements)
** Current wind speed in m/s (hover to see current wind gust speed)